Rhyl, United Kingdom
Current Conditions -  °F | °C
As of 8:20 AM on Sunday 26 Oct 2014 (Local Time) from EGGP Reporting Station
Scattered Clouds Scattered Clouds  
Wind Chill: 55°   Ceiling: Unl
Heat Index: 55°   Visibility: 6mi
Dew Point: 46°   Wind: 18mph
Humidity: 72%   Direction: 210°SSW
Pressure: 29.97"   Gusts: NA
Location:  53.32°N, 3.49°W
Report Text: EGGP 260720Z 21016KT 9999 FEW035 SCT045 13/08 Q1015
Loading
Personal Weather Stations






























Interactive Weather Map
Tropical Storm Tracking
New forecast layout! Learn more

10-Day Weather Forecast

Advertisements
Track Severe Weather on mobile